Time;durP1;ratioP1;P1;durP2;ratioP2;P2;SDS_P1;SDS_P2;PMS_P1;PMS_P2;Temp;Humidity;BMP_temperature;BMP_pressure;BME280_temperature;BME280_humidity;BME280_pressure;Samples;Min_cycle;Max_cycle;Signal;HPM_P1;HPM_P2
2022/08/05 00:01:40;;;;;;;;;;;17.50;81.00;;;;;;5135657;27;20230;-71
2022/08/05 00:04:07;;;;;;;;;;;17.50;80.80;;;;;;5135592;27;20000;-71
2022/08/05 00:06:33;;;;;;;;;;;17.50;80.60;;;;;;5135425;27;20361;-71
2022/08/05 00:09:00;;;;;;;;;;;17.60;80.20;;;;;;5134962;27;19980;-71
2022/08/05 00:11:27;;;;;;;;;;;17.50;80.10;;;;;;5117113;27;20273;-71
2022/08/05 05:39:13;;;;;;;;;;;19.50;49.80;;;;;;5127777;27;19988;-77
2022/08/05 05:41:39;;;;;;;;;;;19.50;50.40;;;;;;5088884;28;19927;-78
2022/08/05 05:44:06;;;;;;;;;;;19.50;50.90;;;;;;5091674;28;19908;-75
2022/08/05 05:46:32;;;;;;;;;;;19.60;50.80;;;;;;5074256;28;19912;-75
2022/08/05 05:48:59;;;;;;;;;;;19.60;49.70;;;;;;5092507;28;19912;-76
2022/08/05 05:51:25;;;;;;;;;;;19.50;47.70;;;;;;5090293;28;20366;-75
2022/08/05 05:53:53;;;;;;;;;;;19.50;47.10;;;;;;5092289;28;19904;-75
2022/08/05 05:56:20;;;;;;;;;;;19.50;46.30;;;;;;5074863;28;19904;-76
2022/08/05 05:58:47;;;;;;;;;;;19.60;46.00;;;;;;5092136;28;19923;-74
2022/08/05 06:01:14;;;;;;;;;;;19.60;44.20;;;;;;5090971;28;20317;-75
2022/08/05 06:03:40;;;;;;;;;;;19.60;44.80;;;;;;5071490;28;19915;-76
2022/08/05 06:06:07;;;;;;;;;;;19.60;44.00;;;;;;5073619;28;20354;-75
2022/08/05 06:08:34;;;;;;;;;;;19.70;43.10;;;;;;5089060;28;19922;-74
2022/08/05 06:11:00;;;;;;;;;;;19.60;43.80;;;;;;5099437;28;19915;-75
2022/08/05 06:13:27;;;;;;;;;;;19.60;43.30;;;;;;5095303;28;20230;-74
2022/08/05 06:15:53;;;;;;;;;;;19.50;42.40;;;;;;5082811;28;20010;-75
2022/08/05 06:18:20;;;;;;;;;;;19.60;42.20;;;;;;5089564;28;19953;-73
2022/08/05 06:20:46;;;;;;;;;;;19.60;41.90;;;;;;5089360;28;20402;-74
2022/08/05 06:23:13;;;;;;;;;;;19.50;41.90;;;;;;5089057;28;20401;-73
2022/08/05 06:25:40;;;;;;;;;;;19.50;41.90;;;;;;5089293;28;19908;-75
2022/08/05 06:28:06;;;;;;;;;;;19.40;42.10;;;;;;5090880;28;19923;-74
2022/08/05 06:30:33;;;;;;;;;;;19.50;41.60;;;;;;5089672;28;19958;-73
2022/08/05 06:32:59;;;;;;;;;;;19.50;41.20;;;;;;5089092;28;19908;-73
2022/08/05 06:35:26;;;;;;;;;;;19.50;42.10;;;;;;5089059;28;19916;-73
2022/08/05 06:37:52;;;;;;;;;;;19.40;41.90;;;;;;5088864;28;19977;-72
2022/08/05 06:40:19;;;;;;;;;;;19.40;41.70;;;;;;5098236;28;19927;-73
2022/08/05 06:42:45;;;;;;;;;;;19.30;42.00;;;;;;5127096;28;20319;-73
2022/08/05 06:45:12;;;;;;;;;;;19.30;41.90;;;;;;5118457;28;19911;-73
2022/08/05 06:47:38;;;;;;;;;;;19.30;41.60;;;;;;5121462;28;19915;-73
2022/08/05 06:50:05;;;;;;;;;;;19.30;42.40;;;;;;5130278;28;19911;-72
2022/08/05 06:52:32;;;;;;;;;;;19.30;42.20;;;;;;5127864;28;19957;-73
2022/08/05 06:54:58;;;;;;;;;;;19.30;42.90;;;;;;5115461;28;19908;-73
2022/08/05 06:57:25;;;;;;;;;;;19.30;42.90;;;;;;5120196;28;20003;-72
2022/08/05 06:59:51;;;;;;;;;;;19.30;43.10;;;;;;5108901;28;19916;-72
2022/08/05 07:02:18;;;;;;;;;;;19.20;43.90;;;;;;5113889;28;19918;-71
2022/08/05 07:04:44;;;;;;;;;;;19.10;43.80;;;;;;5129665;28;20009;-73
2022/08/05 07:07:11;;;;;;;;;;;19.10;43.70;;;;;;5114368;28;19912;-73
2022/08/05 07:09:37;;;;;;;;;;;19.10;43.90;;;;;;5107635;28;19946;-72
2022/08/05 07:12:04;;;;;;;;;;;19.00;43.90;;;;;;5104894;28;20030;-74
2022/08/05 07:17:15;;;;;;;;;;;19.00;43.90;;;;;;5109370;28;20002;-72
2022/08/05 07:19:42;;;;;;;;;;;18.90;44.10;;;;;;5109119;28;20158;-72
2022/08/05 07:22:08;;;;;;;;;;;18.90;44.90;;;;;;5090934;28;19969;-72
2022/08/05 07:24:35;;;;;;;;;;;18.90;45.20;;;;;;5100826;28;19994;-75
2022/08/05 07:27:02;;;;;;;;;;;18.80;45.10;;;;;;5109826;28;19916;-73
2022/08/05 07:29:28;;;;;;;;;;;18.80;45.50;;;;;;5109577;28;19918;-73
2022/08/05 07:31:55;;;;;;;;;;;18.80;45.60;;;;;;5097764;28;19911;-73
2022/08/05 07:34:21;;;;;;;;;;;18.70;45.80;;;;;;5112276;28;20129;-73
2022/08/05 07:36:48;;;;;;;;;;;18.70;46.10;;;;;;5106111;28;19915;-73
2022/08/05 07:39:14;;;;;;;;;;;18.70;46.10;;;;;;5094449;28;20002;-74
2022/08/05 07:41:41;;;;;;;;;;;18.60;46.60;;;;;;5094502;28;19912;-74
2022/08/05 07:44:08;;;;;;;;;;;18.60;46.60;;;;;;5113114;28;19973;-74
2022/08/05 07:46:34;;;;;;;;;;;18.50;47.10;;;;;;5089343;28;19924;-71
2022/08/05 07:49:01;;;;;;;;;;;18.50;47.20;;;;;;5110572;28;20291;-71
2022/08/05 07:51:28;;;;;;;;;;;18.50;47.10;;;;;;5094030;28;19953;-71
2022/08/05 07:53:54;;;;;;;;;;;18.50;47.50;;;;;;5108293;28;20018;-71
2022/08/05 07:56:21;;;;;;;;;;;18.50;47.50;;;;;;5118971;27;19971;-71
2022/08/05 07:58:47;;;;;;;;;;;18.40;47.60;;;;;;5132858;27;19915;-71
2022/08/05 08:01:14;;;;;;;;;;;18.40;47.90;;;;;;5132948;27;19908;-71
2022/08/05 08:03:40;;;;;;;;;;;18.40;47.70;;;;;;5118212;27;19932;-71
2022/08/05 08:06:07;;;;;;;;;;;18.40;47.60;;;;;;5132587;27;19911;-71
2022/08/05 08:08:34;;;;;;;;;;;18.30;47.50;;;;;;5124417;27;20365;-71
2022/08/05 08:11:00;;;;;;;;;;;18.30;48.10;;;;;;5132872;27;20333;-71
2022/08/05 08:13:27;;;;;;;;;;;18.30;47.80;;;;;;5117823;27;20409;-71
2022/08/05 08:15:53;;;;;;;;;;;18.30;47.80;;;;;;5104157;27;19912;-71
2022/08/05 08:18:20;;;;;;;;;;;18.30;48.70;;;;;;5132362;27;20372;-73
2022/08/05 08:20:48;;;;;;;;;;;18.30;48.70;;;;;;5085524;27;20338;-73
2022/08/05 08:23:17;;;;;;;;;;;18.20;48.50;;;;;;5116320;27;19912;-73
2022/08/05 08:25:43;;;;;;;;;;;18.20;47.90;;;;;;5129746;27;19903;-72
2022/08/05 08:28:10;;;;;;;;;;;18.20;49.10;;;;;;5082366;28;19923;-73
2022/08/05 08:30:37;;;;;;;;;;;18.20;48.70;;;;;;5090883;28;19911;-73
2022/08/05 08:33:09;;;;;;;;;;;18.20;48.80;;;;;;5109399;28;19922;-72
2022/08/05 08:35:36;;;;;;;;;;;18.10;49.00;;;;;;5081613;28;19919;-73
2022/08/05 08:38:03;;;;;;;;;;;18.10;49.30;;;;;;5093710;28;19907;-74
2022/08/05 08:40:32;;;;;;;;;;;18.00;49.50;;;;;;5108632;28;19920;-73
2022/08/05 08:42:58;;;;;;;;;;;18.00;50.00;;;;;;5080999;28;19908;-72
2022/08/05 08:45:25;;;;;;;;;;;18.00;49.40;;;;;;5108239;28;19988;-72
2022/08/05 08:47:51;;;;;;;;;;;18.00;49.20;;;;;;5096206;28;19930;-72
2022/08/05 08:50:18;;;;;;;;;;;17.90;49.30;;;;;;5108405;28;19908;-74
2022/08/05 08:52:53;;;;;;;;;;;17.90;49.20;;;;;;5109127;28;20038;-74
2022/08/05 08:55:20;;;;;;;;;;;17.80;49.50;;;;;;5082489;28;19918;-73
2022/08/05 08:57:47;;;;;;;;;;;17.80;49.30;;;;;;5102461;27;19903;-74
2022/08/05 09:00:14;;;;;;;;;;;17.80;49.40;;;;;;5093021;27;19915;-73
2022/08/05 09:02:41;;;;;;;;;;;17.80;49.40;;;;;;5131961;27;19912;-71
2022/08/05 09:05:09;;;;;;;;;;;17.70;48.80;;;;;;5131500;27;19904;-75
2022/08/05 09:07:36;;;;;;;;;;;17.70;48.40;;;;;;5108142;27;19908;-73
2022/08/05 09:10:03;;;;;;;;;;;17.80;47.90;;;;;;5125725;27;19915;-74
2022/08/05 09:12:30;;;;;;;;;;;17.80;47.20;;;;;;5095043;28;19908;-74
2022/08/05 09:14:56;;;;;;;;;;;17.80;47.00;;;;;;5104894;27;19987;-74
2022/08/05 09:17:23;;;;;;;;;;;17.80;46.80;;;;;;5130886;27;19903;-74
2022/08/05 09:19:49;;;;;;;;;;;17.80;47.10;;;;;;5097676;28;19970;-75
2022/08/05 09:22:16;;;;;;;;;;;17.70;46.40;;;;;;5094722;27;20386;-75
2022/08/05 09:24:43;;;;;;;;;;;17.70;46.20;;;;;;5131200;27;20064;-75
2022/08/05 09:27:10;;;;;;;;;;;17.80;45.70;;;;;;5112763;27;20006;-73
2022/08/05 09:29:37;;;;;;;;;;;17.70;45.00;;;;;;5112693;27;20349;-73
2022/08/05 09:32:05;;;;;;;;;;;17.70;44.30;;;;;;5131163;27;19908;-73
2022/08/05 09:34:47;;;;;;;;;;;17.80;43.90;;;;;;5097853;28;20335;-75
2022/08/05 09:37:17;;;;;;;;;;;17.80;44.50;;;;;;5124709;27;19941;-77
2022/08/05 09:39:43;;;;;;;;;;;17.80;43.50;;;;;;5081368;28;19923;-77
2022/08/05 09:42:10;;;;;;;;;;;17.80;44.00;;;;;;5109477;28;20292;-78
2022/08/05 09:44:37;;;;;;;;;;;17.80;43.20;;;;;;5098671;28;19922;-75
2022/08/05 09:47:17;;;;;;;;;;;17.70;43.50;;;;;;5109150;28;20413;-75
2022/08/05 09:49:49;;;;;;;;;;;17.70;42.80;;;;;;5108620;28;20049;-75
2022/08/05 09:52:26;;;;;;;;;;;17.70;43.00;;;;;;5109908;28;19912;-75
2022/08/05 09:54:57;;;;;;;;;;;17.70;43.20;;;;;;5083513;28;19912;-75
2022/08/05 09:57:30;;;;;;;;;;;17.70;42.60;;;;;;5092539;28;19918;-74
2022/08/05 09:59:57;;;;;;;;;;;17.70;42.70;;;;;;5110138;28;19908;-70
2022/08/05 10:02:50;;;;;;;;;;;17.70;43.10;;;;;;5104797;28;19934;-74
2022/08/05 10:05:17;;;;;;;;;;;17.70;43.70;;;;;;5105539;28;20342;-72
2022/08/05 10:07:44;;;;;;;;;;;17.60;44.10;;;;;;5108784;28;20296;-73
2022/08/05 10:10:11;;;;;;;;;;;17.60;43.60;;;;;;5100745;28;20316;-73
2022/08/05 10:12:41;;;;;;;;;;;17.60;43.20;;;;;;5108612;28;19907;-74
2022/08/05 10:15:14;;;;;;;;;;;17.60;44.00;;;;;;5108521;28;19918;-75
2022/08/05 10:17:42;;;;;;;;;;;17.50;43.80;;;;;;5087957;28;19912;-75
2022/08/05 10:20:11;;;;;;;;;;;17.50;44.00;;;;;;5108721;28;19998;-74
2022/08/05 10:22:41;;;;;;;;;;;17.50;44.60;;;;;;5109549;28;19907;-73
2022/08/05 10:25:08;;;;;;;;;;;17.50;44.60;;;;;;5098607;28;19913;-73
2022/08/05 10:27:38;;;;;;;;;;;17.50;44.40;;;;;;5088580;28;21308;-72
2022/08/05 10:30:05;;;;;;;;;;;17.50;44.80;;;;;;5087882;28;19918;-72
2022/08/05 10:32:32;;;;;;;;;;;17.40;45.10;;;;;;5106354;28;19912;-72
2022/08/05 10:34:58;;;;;;;;;;;17.40;44.80;;;;;;5106450;28;19927;-72
2022/08/05 10:37:28;;;;;;;;;;;17.40;45.10;;;;;;5075726;28;19904;-72
2022/08/05 10:39:55;;;;;;;;;;;17.40;45.20;;;;;;5105367;28;20320;-72
2022/08/05 10:42:23;;;;;;;;;;;17.40;45.70;;;;;;5114552;28;19908;-73
2022/08/05 10:44:50;;;;;;;;;;;17.40;45.70;;;;;;5114245;28;19904;-72
2022/08/05 10:47:17;;;;;;;;;;;17.40;45.00;;;;;;5101712;28;19951;-72
2022/08/05 10:50:05;;;;;;;;;;;17.30;45.80;;;;;;5129450;28;19911;-72
2022/08/05 10:52:42;;;;;;;;;;;17.30;45.90;;;;;;5121605;28;19915;-72
2022/08/05 10:55:09;;;;;;;;;;;17.30;45.90;;;;;;5112302;28;20272;-72
2022/08/05 10:57:40;;;;;;;;;;;17.30;46.00;;;;;;5103974;28;20011;-72
2022/08/05 11:00:08;;;;;;;;;;;17.30;46.00;;;;;;5110736;28;19939;-72
2022/08/05 11:02:34;;;;;;;;;;;17.30;45.60;;;;;;5105281;28;19954;-72
2022/08/05 11:05:05;;;;;;;;;;;17.20;46.30;;;;;;5128517;27;19925;-72
2022/08/05 11:07:33;;;;;;;;;;;17.20;45.70;;;;;;5122365;27;20331;-72
2022/08/05 11:10:01;;;;;;;;;;;17.20;45.90;;;;;;5136210;27;20002;-72
2022/08/05 11:12:35;;;;;;;;;;;17.20;47.10;;;;;;5136500;27;19964;-72
2022/08/05 11:15:20;;;;;;;;;;;17.20;45.90;;;;;;5128471;27;19950;-72
2022/08/05 11:17:53;;;;;;;;;;;17.20;46.50;;;;;;5111953;27;19947;-72
2022/08/05 11:20:39;;;;;;;;;;;17.20;45.90;;;;;;5136275;27;20417;-72
2022/08/05 11:23:23;;;;;;;;;;;17.20;46.00;;;;;;5136236;27;19903;-72
2022/08/05 11:26:20;;;;;;;;;;;17.10;46.30;;;;;;5124623;27;20388;-72
2022/08/05 11:28:47;;;;;;;;;;;17.10;46.40;;;;;;5102687;27;20346;-72
2022/08/05 11:31:14;;;;;;;;;;;17.10;46.40;;;;;;5124324;27;20328;-72
2022/08/05 11:33:46;;;;;;;;;;;17.10;47.20;;;;;;5132492;27;19923;-72
2022/08/05 11:36:13;;;;;;;;;;;17.10;46.60;;;;;;5131474;27;19960;-72
2022/08/05 11:38:43;;;;;;;;;;;17.10;46.10;;;;;;5127159;27;19908;-72
2022/08/05 11:41:12;;;;;;;;;;;17.00;47.50;;;;;;5135718;27;20377;-72
2022/08/05 11:43:39;;;;;;;;;;;17.00;46.80;;;;;;5135960;27;19903;-72
2022/08/05 11:46:06;;;;;;;;;;;17.00;46.70;;;;;;5117260;27;19910;-72
2022/08/05 11:48:32;;;;;;;;;;;17.00;47.50;;;;;;5122790;27;20008;-72
2022/08/05 11:50:59;;;;;;;;;;;17.00;48.10;;;;;;5109851;28;19949;-72
2022/08/05 11:53:25;;;;;;;;;;;17.00;48.80;;;;;;5131756;27;19907;-72
2022/08/05 11:55:55;;;;;;;;;;;16.90;48.40;;;;;;5086138;28;19930;-72
2022/08/05 11:58:29;;;;;;;;;;;16.90;48.50;;;;;;5122058;27;19918;-72
2022/08/05 12:01:05;;;;;;;;;;;16.80;49.60;;;;;;5120003;27;19969;-72
2022/08/05 12:03:51;;;;;;;;;;;16.80;50.60;;;;;;5131262;27;20383;-72
2022/08/05 12:06:20;;;;;;;;;;;16.80;50.90;;;;;;5129507;27;19934;-72
2022/08/05 12:08:47;;;;;;;;;;;16.70;50.10;;;;;;5116332;27;20341;-72
2022/08/05 12:11:16;;;;;;;;;;;16.70;50.10;;;;;;5117195;27;19939;-72
2022/08/05 12:13:52;;;;;;;;;;;16.70;49.50;;;;;;5116997;27;19904;-73
2022/08/05 12:16:19;;;;;;;;;;;16.70;49.80;;;;;;5096178;27;20053;-72
2022/08/05 12:18:46;;;;;;;;;;;16.70;50.50;;;;;;5114342;27;19910;-72
2022/08/05 12:21:16;;;;;;;;;;;16.60;50.90;;;;;;5112408;27;19910;-72
2022/08/05 12:23:53;;;;;;;;;;;16.60;51.30;;;;;;5086713;28;19978;-72
2022/08/05 12:26:20;;;;;;;;;;;16.60;51.40;;;;;;5110901;28;20357;-71
2022/08/05 12:28:46;;;;;;;;;;;16.60;52.20;;;;;;5091647;28;20486;-71
2022/08/05 12:31:13;;;;;;;;;;;16.50;51.70;;;;;;5112098;28;19912;-71
2022/08/05 12:33:39;;;;;;;;;;;16.50;51.00;;;;;;5093888;27;19926;-71
2022/08/05 12:36:06;;;;;;;;;;;16.50;50.80;;;;;;5119594;27;19914;-71
2022/08/05 12:38:34;;;;;;;;;;;16.50;51.20;;;;;;5103660;28;19955;-71
2022/08/05 12:41:00;;;;;;;;;;;16.40;51.20;;;;;;5094285;28;19981;-71
2022/08/05 12:43:27;;;;;;;;;;;16.40;52.30;;;;;;5090952;28;19904;-71
2022/08/05 12:45:54;;;;;;;;;;;16.40;51.90;;;;;;5072555;28;19919;-71
2022/08/05 12:48:21;;;;;;;;;;;16.40;50.70;;;;;;5090834;28;20388;-72
2022/08/05 12:51:06;;;;;;;;;;;16.40;50.80;;;;;;5091205;28;19933;-73
2022/08/05 12:53:32;;;;;;;;;;;16.30;51.70;;;;;;5090504;28;19912;-70
2022/08/05 12:55:59;;;;;;;;;;;16.30;51.30;;;;;;5090896;28;19908;-71
2022/08/05 12:58:25;;;;;;;;;;;16.30;51.50;;;;;;5091234;28;19916;-71
2022/08/05 13:00:52;;;;;;;;;;;16.30;51.50;;;;;;5090905;28;20365;-72
2022/08/05 13:03:18;;;;;;;;;;;16.20;52.20;;;;;;5065823;28;19947;-75
2022/08/05 13:05:47;;;;;;;;;;;16.20;51.10;;;;;;5072376;28;20285;-72
2022/08/05 13:08:16;;;;;;;;;;;16.20;52.00;;;;;;5072257;28;20290;-73
2022/08/05 13:10:42;;;;;;;;;;;16.20;52.60;;;;;;5077179;28;19956;-71
2022/08/05 13:13:09;;;;;;;;;;;16.20;52.40;;;;;;5092003;28;19914;-75
2022/08/05 13:15:36;;;;;;;;;;;16.20;52.10;;;;;;5072161;28;19946;-73
2022/08/05 13:18:02;;;;;;;;;;;16.10;53.40;;;;;;5072246;28;19915;-74
2022/08/05 13:20:35;;;;;;;;;;;16.10;52.60;;;;;;5071777;28;19987;-73
2022/08/05 13:23:01;;;;;;;;;;;16.00;52.60;;;;;;5086822;28;20398;-72
2022/08/05 13:25:28;;;;;;;;;;;16.00;52.10;;;;;;5055000;28;20377;-75
2022/08/05 13:27:56;;;;;;;;;;;16.00;53.50;;;;;;5089524;28;19924;-75
2022/08/05 13:30:25;;;;;;;;;;;16.00;53.20;;;;;;5087974;28;20531;-73
2022/08/05 13:32:52;;;;;;;;;;;16.00;52.50;;;;;;5072405;28;19943;-72
2022/08/05 13:35:19;;;;;;;;;;;16.00;53.50;;;;;;5089806;28;19912;-72
2022/08/05 13:37:46;;;;;;;;;;;16.00;52.30;;;;;;5089805;28;20276;-72
2022/08/05 13:40:13;;;;;;;;;;;16.00;53.40;;;;;;5081926;28;20381;-72
2022/08/05 13:42:40;;;;;;;;;;;15.90;52.20;;;;;;5068646;28;19908;-72
2022/08/05 13:45:07;;;;;;;;;;;16.00;51.90;;;;;;5090206;28;19914;-72
2022/08/05 13:47:33;;;;;;;;;;;16.00;53.30;;;;;;5085414;28;20369;-72
2022/08/05 13:50:00;;;;;;;;;;;16.00;52.50;;;;;;5069504;28;19919;-72
2022/08/05 13:52:28;;;;;;;;;;;16.10;51.10;;;;;;5089534;28;19947;-72
2022/08/05 13:54:55;;;;;;;;;;;16.10;51.70;;;;;;5069727;28;20051;-72
2022/08/05 13:57:22;;;;;;;;;;;16.10;51.70;;;;;;5092255;28;20299;-72
2022/08/05 13:59:48;;;;;;;;;;;16.00;52.80;;;;;;5096735;28;19918;-72
2022/08/05 14:02:15;;;;;;;;;;;16.00;53.10;;;;;;5082425;28;19919;-72
2022/08/05 14:07:27;;;;;;;;;;;15.90;54.40;;;;;;5094223;28;20387;-72
2022/08/05 14:09:54;;;;;;;;;;;15.80;55.20;;;;;;5102637;28;19912;-72
2022/08/05 14:12:20;;;;;;;;;;;15.80;53.70;;;;;;5102662;28;19916;-75
2022/08/05 14:14:47;;;;;;;;;;;15.80;53.80;;;;;;5063503;28;19947;-75
2022/08/05 14:17:14;;;;;;;;;;;15.70;53.50;;;;;;5088690;28;20281;-77
2022/08/05 14:19:41;;;;;;;;;;;15.70;54.50;;;;;;5092091;28;19987;-76
2022/08/05 14:22:07;;;;;;;;;;;15.70;54.30;;;;;;5108861;28;19911;-75
2022/08/05 14:24:34;;;;;;;;;;;15.70;53.50;;;;;;5109457;28;20367;-73
2022/08/05 14:27:01;;;;;;;;;;;15.70;54.10;;;;;;5109618;28;19907;-72
2022/08/05 14:29:28;;;;;;;;;;;15.70;54.40;;;;;;5107677;28;19938;-72
2022/08/05 14:31:55;;;;;;;;;;;15.70;54.50;;;;;;5093107;28;19940;-74
2022/08/05 14:34:21;;;;;;;;;;;15.70;54.30;;;;;;5106028;28;20622;-75
2022/08/05 14:36:48;;;;;;;;;;;15.70;54.40;;;;;;5110338;28;19908;-74
2022/08/05 14:39:14;;;;;;;;;;;15.70;54.70;;;;;;5091596;28;20331;-73
2022/08/05 14:41:41;;;;;;;;;;;15.70;54.20;;;;;;5116184;27;19934;-72
2022/08/05 14:44:07;;;;;;;;;;;15.70;55.10;;;;;;5116237;27;19907;-72
2022/08/05 14:46:34;;;;;;;;;;;15.70;54.80;;;;;;5126659;27;19920;-75
2022/08/05 14:49:01;;;;;;;;;;;15.70;55.40;;;;;;5116203;27;19919;-74
2022/08/05 14:51:28;;;;;;;;;;;15.60;55.60;;;;;;5133601;27;19903;-77
2022/08/05 14:53:54;;;;;;;;;;;15.60;56.20;;;;;;5119974;27;19911;-75
2022/08/05 14:56:21;;;;;;;;;;;15.70;57.10;;;;;;5130195;27;19904;-75
2022/08/05 14:58:47;;;;;;;;;;;15.60;57.20;;;;;;5131144;27;19923;-74
2022/08/05 15:01:14;;;;;;;;;;;15.60;56.90;;;;;;5118889;27;20003;-74
2022/08/05 15:03:41;;;;;;;;;;;15.60;58.10;;;;;;5132954;27;20418;-74
2022/08/05 15:06:07;;;;;;;;;;;15.60;58.00;;;;;;5136778;27;20303;-74
2022/08/05 15:08:34;;;;;;;;;;;15.60;58.30;;;;;;5136523;27;19911;-73
2022/08/05 15:11:00;;;;;;;;;;;15.60;58.00;;;;;;5136557;27;20261;-73
2022/08/05 15:13:27;;;;;;;;;;;15.50;58.70;;;;;;5136915;27;20395;-74
2022/08/05 15:15:54;;;;;;;;;;;15.60;58.90;;;;;;5121061;27;19911;-73
2022/08/05 15:18:21;;;;;;;;;;;15.50;59.10;;;;;;5114449;27;19965;-73
2022/08/05 15:20:47;;;;;;;;;;;15.50;58.90;;;;;;5100538;27;19907;-74
2022/08/05 15:23:14;;;;;;;;;;;15.50;58.80;;;;;;5136616;27;19911;-74
2022/08/05 15:25:41;;;;;;;;;;;15.60;59.50;;;;;;5136268;27;19903;-74
2022/08/05 15:28:07;;;;;;;;;;;15.60;59.60;;;;;;5136329;27;19915;-74
2022/08/05 15:30:35;;;;;;;;;;;15.60;59.40;;;;;;5084401;27;19911;-74
2022/08/05 15:33:02;;;;;;;;;;;15.50;59.40;;;;;;5136393;27;19945;-74
2022/08/05 15:35:29;;;;;;;;;;;15.50;59.40;;;;;;5136376;27;19980;-74
2022/08/05 15:37:55;;;;;;;;;;;15.40;59.40;;;;;;5118019;27;19910;-74
2022/08/05 15:40:22;;;;;;;;;;;15.40;59.60;;;;;;5113176;27;19923;-74
2022/08/05 15:42:49;;;;;;;;;;;15.40;59.70;;;;;;5095323;28;20282;-74
2022/08/05 15:45:15;;;;;;;;;;;15.40;59.80;;;;;;5095273;28;19949;-74
2022/08/05 15:47:42;;;;;;;;;;;15.30;60.10;;;;;;5093011;28;20313;-73
2022/08/05 15:50:09;;;;;;;;;;;15.30;60.10;;;;;;5094912;28;19972;-74
2022/08/05 15:52:39;;;;;;;;;;;15.30;59.20;;;;;;5075783;28;20280;-74
2022/08/05 15:55:06;;;;;;;;;;;15.30;59.30;;;;;;5094386;28;19916;-73
2022/08/05 15:57:32;;;;;;;;;;;15.30;59.10;;;;;;5094916;28;20325;-73
2022/08/05 15:59:59;;;;;;;;;;;15.30;59.10;;;;;;5094238;28;20305;-73
2022/08/05 16:02:25;;;;;;;;;;;15.30;59.00;;;;;;5094227;28;19919;-73
2022/08/05 16:04:52;;;;;;;;;;;15.40;59.20;;;;;;5094222;28;19904;-73
2022/08/05 16:07:21;;;;;;;;;;;15.40;59.00;;;;;;5094729;28;19998;-74
2022/08/05 16:09:48;;;;;;;;;;;15.40;59.20;;;;;;5087089;28;20275;-74
2022/08/05 16:12:15;;;;;;;;;;;15.40;59.20;;;;;;5074813;28;19904;-73
2022/08/05 16:14:41;;;;;;;;;;;15.30;59.20;;;;;;5094746;28;19954;-74
2022/08/05 16:17:08;;;;;;;;;;;15.40;59.50;;;;;;5094603;28;19934;-74
2022/08/05 16:19:34;;;;;;;;;;;15.40;60.20;;;;;;5093898;28;19995;-73
2022/08/05 16:22:01;;;;;;;;;;;15.40;59.80;;;;;;5094755;28;19912;-73
2022/08/05 16:24:28;;;;;;;;;;;15.30;60.00;;;;;;5075046;28;19904;-73
2022/08/05 16:26:59;;;;;;;;;;;15.30;60.10;;;;;;5086756;28;19908;-73
2022/08/05 16:29:25;;;;;;;;;;;15.30;60.30;;;;;;5074929;28;19916;-73
2022/08/05 16:31:52;;;;;;;;;;;15.30;60.70;;;;;;5094424;28;19958;-74
2022/08/05 16:34:19;;;;;;;;;;;15.30;60.50;;;;;;5094238;28;20282;-73
2022/08/05 16:36:46;;;;;;;;;;;15.30;60.40;;;;;;5094286;28;19919;-73
2022/08/05 16:39:12;;;;;;;;;;;15.20;60.30;;;;;;5075302;28;19999;-73
2022/08/05 16:41:42;;;;;;;;;;;15.20;60.80;;;;;;5114618;27;19915;-73
2022/08/05 16:44:09;;;;;;;;;;;15.20;61.10;;;;;;5081941;27;19970;-73
2022/08/05 16:46:35;;;;;;;;;;;15.20;60.70;;;;;;5135190;27;19903;-74
2022/08/05 16:49:02;;;;;;;;;;;15.20;60.70;;;;;;5099070;28;20021;-73
2022/08/05 16:51:29;;;;;;;;;;;15.20;60.50;;;;;;5129312;27;19908;-73
2022/08/05 16:53:56;;;;;;;;;;;15.20;61.00;;;;;;5118129;27;19903;-73
2022/08/05 16:56:22;;;;;;;;;;;15.20;61.20;;;;;;5127976;27;19909;-73
2022/08/05 16:58:49;;;;;;;;;;;15.20;60.80;;;;;;5134608;27;19903;-73
2022/08/05 17:01:15;;;;;;;;;;;15.20;61.30;;;;;;5128520;27;19908;-73
2022/08/05 17:03:42;;;;;;;;;;;15.20;60.90;;;;;;5097665;27;19964;-73
2022/08/05 17:06:08;;;;;;;;;;;15.20;61.30;;;;;;5116432;27;19904;-73
2022/08/05 17:08:35;;;;;;;;;;;15.10;61.40;;;;;;5134396;27;20010;-74
2022/08/05 17:11:02;;;;;;;;;;;15.10;60.20;;;;;;5134656;27;19907;-73
2022/08/05 17:13:28;;;;;;;;;;;15.10;58.80;;;;;;5129572;27;19910;-74
2022/08/05 17:15:55;;;;;;;;;;;15.10;59.30;;;;;;5132067;27;20202;-74
2022/08/05 17:18:25;;;;;;;;;;;15.10;59.40;;;;;;5114086;27;19981;-73
2022/08/05 17:20:51;;;;;;;;;;;15.10;58.70;;;;;;5132181;27;20307;-73
2022/08/05 17:23:18;;;;;;;;;;;15.10;58.30;;;;;;5134078;27;20260;-73
2022/08/05 17:25:45;;;;;;;;;;;15.10;58.00;;;;;;5134053;27;20375;-74
2022/08/05 17:28:11;;;;;;;;;;;15.20;57.50;;;;;;5125823;27;19960;-73
2022/08/05 17:30:38;;;;;;;;;;;15.10;57.70;;;;;;5134181;27;20023;-73
2022/08/05 17:33:04;;;;;;;;;;;15.10;57.50;;;;;;5130570;27;20352;-73
2022/08/05 17:35:31;;;;;;;;;;;15.10;57.30;;;;;;5127085;27;20360;-73
2022/08/05 17:37:57;;;;;;;;;;;15.00;58.10;;;;;;5133994;27;19913;-73
2022/08/05 17:40:24;;;;;;;;;;;15.00;57.90;;;;;;5102001;27;19923;-73
2022/08/05 17:42:51;;;;;;;;;;;15.00;57.90;;;;;;5092769;28;19915;-73
2022/08/05 17:45:18;;;;;;;;;;;15.00;57.90;;;;;;5074458;28;20327;-73
2022/08/05 17:47:44;;;;;;;;;;;15.00;57.20;;;;;;5079953;28;20353;-73
2022/08/05 17:50:11;;;;;;;;;;;15.00;57.70;;;;;;5092311;28;19930;-73
2022/08/05 17:52:37;;;;;;;;;;;15.00;58.30;;;;;;5086886;28;19905;-73
2022/08/05 17:55:04;;;;;;;;;;;15.00;58.10;;;;;;5092560;28;19915;-73
2022/08/05 17:57:31;;;;;;;;;;;14.90;58.50;;;;;;5093027;28;20285;-73
2022/08/05 17:59:57;;;;;;;;;;;14.90;58.00;;;;;;5092685;28;20273;-73
2022/08/05 18:02:24;;;;;;;;;;;15.00;58.40;;;;;;5092832;28;19904;-73
2022/08/05 18:04:50;;;;;;;;;;;14.90;58.10;;;;;;5091822;28;19949;-73
2022/08/05 18:07:17;;;;;;;;;;;14.90;58.60;;;;;;5090894;28;19911;-73
2022/08/05 18:09:44;;;;;;;;;;;14.80;58.70;;;;;;5083529;28;20016;-73
2022/08/05 18:12:10;;;;;;;;;;;14.80;58.50;;;;;;5092299;28;19911;-73
2022/08/05 18:14:37;;;;;;;;;;;14.90;58.70;;;;;;5092212;28;20045;-73
2022/08/05 18:17:07;;;;;;;;;;;14.80;59.20;;;;;;5092586;28;19908;-73
2022/08/05 18:19:34;;;;;;;;;;;14.80;60.20;;;;;;5073662;28;19911;-73
2022/08/05 18:22:00;;;;;;;;;;;14.80;59.80;;;;;;5092345;28;20392;-73
2022/08/05 18:24:27;;;;;;;;;;;14.80;60.00;;;;;;5090250;28;19990;-73
2022/08/05 18:26:53;;;;;;;;;;;14.70;60.80;;;;;;5092249;28;19958;-73
2022/08/05 18:29:20;;;;;;;;;;;14.60;60.70;;;;;;5091043;28;19912;-73
2022/08/05 18:31:47;;;;;;;;;;;14.60;61.10;;;;;;5091188;28;19904;-73
2022/08/05 18:34:13;;;;;;;;;;;14.50;61.30;;;;;;5090410;28;20409;-73
2022/08/05 18:36:40;;;;;;;;;;;14.50;62.00;;;;;;5091965;28;19904;-73
2022/08/05 18:39:07;;;;;;;;;;;14.50;62.10;;;;;;5087637;28;20354;-73
2022/08/05 18:41:33;;;;;;;;;;;14.50;61.70;;;;;;5120342;28;19954;-73
2022/08/05 18:44:00;;;;;;;;;;;14.50;61.90;;;;;;5118473;28;19908;-73
2022/08/05 18:46:27;;;;;;;;;;;14.50;62.00;;;;;;5119781;28;19903;-73
2022/08/05 18:48:53;;;;;;;;;;;14.50;61.70;;;;;;5112093;28;19920;-73
2022/08/05 18:54:08;;;;;;;;;;;14.50;62.00;;;;;;5126831;28;19963;-73
2022/08/05 18:56:34;;;;;;;;;;;14.40;62.00;;;;;;5132867;28;19925;-73
2022/08/05 18:59:01;;;;;;;;;;;14.40;62.60;;;;;;5114623;28;19904;-73
2022/08/05 19:01:28;;;;;;;;;;;14.40;62.10;;;;;;5087451;28;19910;-73
2022/08/05 19:03:54;;;;;;;;;;;14.30;62.20;;;;;;5112117;28;19968;-73
2022/08/05 19:06:21;;;;;;;;;;;14.30;62.60;;;;;;5128629;28;19904;-73
2022/08/05 19:08:48;;;;;;;;;;;14.30;62.80;;;;;;5133008;28;19998;-73
2022/08/05 19:11:14;;;;;;;;;;;14.30;63.20;;;;;;5114887;28;20007;-73
2022/08/05 19:13:41;;;;;;;;;;;14.30;63.30;;;;;;5132728;28;19931;-73
2022/08/05 19:16:07;;;;;;;;;;;14.30;63.40;;;;;;5123231;28;20273;-73
2022/08/05 19:18:34;;;;;;;;;;;14.30;64.30;;;;;;5116257;28;19907;-73
2022/08/05 19:21:00;;;;;;;;;;;14.30;63.70;;;;;;5132831;28;19914;-73
2022/08/05 19:23:30;;;;;;;;;;;14.20;63.80;;;;;;5132490;28;19907;-73
2022/08/05 19:25:57;;;;;;;;;;;14.20;64.70;;;;;;5125229;28;19915;-73
2022/08/05 19:28:24;;;;;;;;;;;14.30;65.00;;;;;;5131759;27;19949;-73
2022/08/05 19:30:50;;;;;;;;;;;14.30;64.80;;;;;;5136470;27;19907;-73
2022/08/05 19:33:17;;;;;;;;;;;14.30;65.30;;;;;;5136444;27;19993;-73
2022/08/05 19:35:43;;;;;;;;;;;14.20;64.70;;;;;;5136329;27;19924;-73
2022/08/05 19:38:10;;;;;;;;;;;14.20;64.90;;;;;;5136086;27;19947;-73
2022/08/05 19:40:36;;;;;;;;;;;14.20;64.70;;;;;;5102692;27;19931;-73
2022/08/05 19:43:03;;;;;;;;;;;14.20;64.90;;;;;;5095007;28;19908;-73
2022/08/05 19:45:29;;;;;;;;;;;14.20;64.90;;;;;;5077090;28;19908;-73
2022/08/05 19:47:56;;;;;;;;;;;14.20;65.10;;;;;;5075774;28;19915;-73
2022/08/05 19:50:25;;;;;;;;;;;14.20;65.00;;;;;;5086067;28;19970;-73
2022/08/05 19:52:52;;;;;;;;;;;14.20;64.90;;;;;;5094919;28;19904;-73